Weather at Pellston Regional Airport of Emmet County Airport

Public forecast

Using degrees Fahrenheit for public forecast. Weather courtesy of forecast.io.

Current aviation weather report (METAR) for Pellston Regional Airport of Emmet County Airport

2024/07/12 22:54 (retrieved 23 minutes ago)

KPLN 122254Z AUTO 25008KT 10SM CLR 27/17 A3009 RMK AO2 SLP189 T02720167

Aviation forecast (TAF) for Pellston Regional Airport of Emmet County Airport

2024/07/12 21:18 Ammendment (retrieved 2 hours ago)

TAF AMD KPLN 122115Z 1221/1318 26009KT P6SM FEW045 SCT070 FM130100 00000KT P6SM SKC FM131300 25007KT P6SM FEW250